createdAt,value
2022-12-15T00:00:03.901Z,39.70
2022-12-15T00:02:50.486Z,35.07
2022-12-15T00:05:36.523Z,34.20
2022-12-15T00:08:28.568Z,30.43
2022-12-15T00:11:14.400Z,27.90
2022-12-15T00:13:59.787Z,29.17
2022-12-15T00:16:45.402Z,29.90
2022-12-15T00:19:30.778Z,29.03
2022-12-15T00:22:16.651Z,29.13
2022-12-15T00:25:03.774Z,29.80
2022-12-15T00:27:49.387Z,30.97
2022-12-15T00:30:35.053Z,29.53
2022-12-15T00:33:26.655Z,29.87
2022-12-15T00:36:12.100Z,30.03
2022-12-15T00:38:46.162Z,30.13
2022-12-15T00:41:17.473Z,29.97
2022-12-15T00:43:46.143Z,28.20
2022-12-15T00:46:32.044Z,29.67
2022-12-15T00:49:00.565Z,30.03
2022-12-15T00:51:45.836Z,29.60
2022-12-15T00:54:31.393Z,30.63
2022-12-15T00:57:18.437Z,29.13
2022-12-15T01:00:04.047Z,30.13
2022-12-15T01:02:49.912Z,30.67
2022-12-15T01:05:35.494Z,28.80
2022-12-15T01:08:21.015Z,31.20
2022-12-15T01:11:06.455Z,29.63
2022-12-15T01:13:53.439Z,29.03
2022-12-15T01:16:39.160Z,29.57
2022-12-15T01:19:26.819Z,28.17
2022-12-15T01:21:54.839Z,28.10
2022-12-15T01:24:22.925Z,29.90
2022-12-15T01:26:51.127Z,29.97
2022-12-15T01:29:20.572Z,28.60
2022-12-15T01:31:49.849Z,27.93
2022-12-15T01:34:20.025Z,30.03
2022-12-15T01:36:48.179Z,31.10
2022-12-15T01:39:16.564Z,28.97
2022-12-15T01:41:43.633Z,28.57
2022-12-15T01:44:21.034Z,29.60
2022-12-15T01:46:50.692Z,26.90
2022-12-15T01:49:24.421Z,26.77
2022-12-15T01:51:58.349Z,26.23
2022-12-15T01:54:30.582Z,28.13
2022-12-15T01:57:05.857Z,29.10
2022-12-15T01:59:40.015Z,28.17
2022-12-15T02:05:11.297Z,28.57
2022-12-15T02:07:39.408Z,28.77
2022-12-15T02:10:11.148Z,27.13
2022-12-15T02:12:45.974Z,29.83
2022-12-15T02:15:22.259Z,27.90
2022-12-15T02:17:57.595Z,28.80
2022-12-15T02:20:47.269Z,24.93
2022-12-15T02:23:53.703Z,28.13
2022-12-15T02:26:46.327Z,25.50
2022-12-15T02:29:46.129Z,26.50
2022-12-15T02:32:16.778Z,27.87
2022-12-15T02:34:53.034Z,28.47
2022-12-15T02:37:26.135Z,28.43
2022-12-15T02:39:54.259Z,26.83
2022-12-15T02:42:24.101Z,25.63
2022-12-15T02:44:55.493Z,26.83
2022-12-15T02:47:33.551Z,25.13
2022-12-15T02:50:20.866Z,26.57
2022-12-15T02:52:58.929Z,25.70
2022-12-15T02:55:35.498Z,24.20
2022-12-15T02:58:08.260Z,23.03
2022-12-15T03:00:42.619Z,25.87
2022-12-15T03:03:12.761Z,24.20
2022-12-15T03:05:40.925Z,23.80
2022-12-15T03:08:09.203Z,22.63
2022-12-15T03:10:37.293Z,22.20
2022-12-15T03:13:05.728Z,22.60
2022-12-15T03:15:35.796Z,23.27
2022-12-15T03:18:04.060Z,23.10
2022-12-15T03:20:33.873Z,24.20
2022-12-15T03:23:02.376Z,23.03
2022-12-15T03:25:30.850Z,24.00
2022-12-15T03:27:58.905Z,23.67
2022-12-15T03:30:27.065Z,23.53
2022-12-15T03:32:55.102Z,23.03
2022-12-15T03:35:23.219Z,24.43
2022-12-15T03:37:52.686Z,23.53
2022-12-15T03:40:20.760Z,23.17
2022-12-15T03:42:51.598Z,23.70
2022-12-15T03:45:21.128Z,23.97
2022-12-15T03:47:50.498Z,22.47
2022-12-15T03:50:21.359Z,23.23
2022-12-15T03:52:53.724Z,21.20
2022-12-15T03:55:23.012Z,21.70
2022-12-15T03:57:51.318Z,21.93
2022-12-15T04:00:20.552Z,23.30
2022-12-15T04:02:50.181Z,24.83
2022-12-15T04:05:20.870Z,25.43
2022-12-15T04:07:48.962Z,24.53
2022-12-15T04:10:18.919Z,26.10
2022-12-15T04:12:47.025Z,35.77
2022-12-15T04:15:15.359Z,34.97
2022-12-15T04:17:43.741Z,23.53
2022-12-15T04:20:12.354Z,23.97
2022-12-15T04:22:42.219Z,26.63
2022-12-15T04:25:30.212Z,23.03
2022-12-15T04:28:17.385Z,24.90
2022-12-15T04:31:06.003Z,23.93
2022-12-15T04:33:52.225Z,22.33
2022-12-15T04:36:37.900Z,22.70
2022-12-15T04:39:24.079Z,22.53
2022-12-15T04:42:10.064Z,25.47
2022-12-15T04:44:57.413Z,24.90
2022-12-15T04:47:42.815Z,26.53
2022-12-15T04:50:28.414Z,28.20
2022-12-15T04:53:14.260Z,28.83
2022-12-15T04:56:01.242Z,28.63
2022-12-15T04:58:46.803Z,24.13
2022-12-15T05:01:33.664Z,23.40
2022-12-15T05:04:19.227Z,24.87
2022-12-15T05:07:05.753Z,26.53
2022-12-15T05:09:51.385Z,26.27
2022-12-15T05:12:37.082Z,27.47
2022-12-15T05:15:23.118Z,27.83
2022-12-15T05:18:09.808Z,23.30
2022-12-15T05:20:55.502Z,25.50
2022-12-15T05:23:41.161Z,26.47
2022-12-15T05:26:26.839Z,28.60
2022-12-15T05:29:12.984Z,29.67
2022-12-15T05:31:51.865Z,26.53
2022-12-15T05:34:23.471Z,23.17
2022-12-15T05:36:51.836Z,24.27
2022-12-15T05:39:19.979Z,23.83
2022-12-15T05:41:48.452Z,23.10
2022-12-15T05:44:17.327Z,23.73
2022-12-15T05:46:46.372Z,25.10
2022-12-15T05:49:16.553Z,26.27
2022-12-15T05:51:47.423Z,24.53
2022-12-15T05:54:17.946Z,24.43
2022-12-15T05:56:46.375Z,24.90
2022-12-15T05:59:15.871Z,24.03
2022-12-15T06:01:44.095Z,22.20
2022-12-15T06:04:13.516Z,23.20
2022-12-15T06:06:42.340Z,21.57
2022-12-15T06:09:12.047Z,23.50
2022-12-15T06:11:40.096Z,21.83
2022-12-15T06:14:08.312Z,21.10
2022-12-15T06:16:42.651Z,20.73
2022-12-15T06:19:18.776Z,22.50
2022-12-15T06:21:46.857Z,23.10
2022-12-15T06:24:16.438Z,22.23
2022-12-15T06:26:44.659Z,22.13
2022-12-15T06:29:14.157Z,22.10
2022-12-15T06:31:43.059Z,22.23
2022-12-15T06:34:14.631Z,20.70
2022-12-15T06:36:43.171Z,21.50
2022-12-15T06:39:15.069Z,23.13
2022-12-15T06:41:45.264Z,22.80
2022-12-15T06:44:15.350Z,22.53
2022-12-15T06:46:45.698Z,22.70
2022-12-15T06:49:13.961Z,23.87
2022-12-15T06:51:43.901Z,22.07
2022-12-15T06:54:12.428Z,22.97
2022-12-15T06:56:40.481Z,25.37
2022-12-15T06:59:11.115Z,23.70
2022-12-15T07:01:39.460Z,25.67
2022-12-15T07:04:07.756Z,26.50
2022-12-15T07:06:37.644Z,25.30
2022-12-15T07:09:08.082Z,24.63
2022-12-15T07:11:36.796Z,22.43
2022-12-15T07:14:05.104Z,23.20
2022-12-15T07:16:34.683Z,25.10
2022-12-15T07:19:02.873Z,25.70
2022-12-15T07:21:30.990Z,24.80
2022-12-15T07:24:00.260Z,25.50
2022-12-15T07:26:29.326Z,21.00
2022-12-15T07:28:57.464Z,23.60
2022-12-15T07:31:28.336Z,22.60
2022-12-15T07:33:58.796Z,22.80
2022-12-15T07:36:27.509Z,24.60
2022-12-15T07:39:00.731Z,23.50
2022-12-15T07:41:29.900Z,22.10
2022-12-15T07:43:58.717Z,23.70
2022-12-15T07:46:27.394Z,23.23
2022-12-15T07:48:56.985Z,21.83
2022-12-15T07:51:25.085Z,21.67
2022-12-15T07:53:53.209Z,20.90
2022-12-15T07:56:21.748Z,20.70
2022-12-15T07:58:50.061Z,21.90
2022-12-15T08:01:19.545Z,25.53
2022-12-15T08:03:49.416Z,22.13
2022-12-15T08:06:18.942Z,21.47
2022-12-15T08:08:50.560Z,20.80
2022-12-15T08:11:21.959Z,22.20
2022-12-15T08:14:11.813Z,20.73
2022-12-15T08:16:39.226Z,20.67
2022-12-15T08:19:08.752Z,22.03
2022-12-15T08:21:40.560Z,23.70
2022-12-15T08:24:09.084Z,21.43
2022-12-15T08:26:38.904Z,20.87
2022-12-15T08:31:57.208Z,20.77
2022-12-15T08:34:25.460Z,20.07
2022-12-15T08:36:56.821Z,21.90
2022-12-15T08:39:24.945Z,21.37
2022-12-15T08:41:53.143Z,22.17
2022-12-15T08:44:21.264Z,22.17
2022-12-15T08:46:49.311Z,20.50
2022-12-15T08:49:21.727Z,19.47
2022-12-15T08:51:51.032Z,22.27
2022-12-15T08:54:21.533Z,19.20
2022-12-15T08:56:49.889Z,19.73
2022-12-15T08:59:18.973Z,20.73
2022-12-15T09:01:47.222Z,20.77
2022-12-15T09:04:15.688Z,18.63
2022-12-15T09:06:44.401Z,18.33
2022-12-15T09:09:20.377Z,18.13
2022-12-15T09:11:48.568Z,18.00
2022-12-15T09:14:16.923Z,19.67
2022-12-15T09:16:45.220Z,19.57
2022-12-15T09:19:13.400Z,18.63
2022-12-15T09:21:44.835Z,19.90
2022-12-15T09:24:24.750Z,18.33
2022-12-15T09:26:58.589Z,19.57
2022-12-15T09:29:26.719Z,21.20
2022-12-15T09:31:54.860Z,20.20
2022-12-15T09:34:22.920Z,21.43
2022-12-15T09:36:51.015Z,20.83
2022-12-15T09:39:19.439Z,20.20
2022-12-15T09:41:54.195Z,20.03
2022-12-15T09:44:26.571Z,19.70
2022-12-15T09:47:05.800Z,18.53
2022-12-15T09:49:51.078Z,18.67
2022-12-15T09:52:22.859Z,20.00
2022-12-15T09:54:51.348Z,18.90
2022-12-15T09:57:37.756Z,20.57
2022-12-15T10:00:21.507Z,20.57
2022-12-15T10:03:16.991Z,21.30
2022-12-15T10:06:15.447Z,21.03
2022-12-15T10:08:50.640Z,19.77
2022-12-15T10:11:25.556Z,23.27
2022-12-15T10:13:58.914Z,21.67
2022-12-15T10:16:35.350Z,21.10
2022-12-15T10:19:14.274Z,21.13
2022-12-15T10:21:42.692Z,23.03
2022-12-15T10:24:31.586Z,22.07
2022-12-15T10:27:19.871Z,21.87
2022-12-15T10:29:51.691Z,22.20
2022-12-15T10:32:26.108Z,22.03
2022-12-15T10:34:54.217Z,22.87
2022-12-15T10:37:24.219Z,21.30
2022-12-15T10:39:52.697Z,21.87
2022-12-15T10:42:23.083Z,23.20
2022-12-15T10:44:54.023Z,21.60
2022-12-15T10:47:26.060Z,21.30
2022-12-15T10:49:56.089Z,20.50
2022-12-15T10:52:28.172Z,21.00
2022-12-15T10:54:57.206Z,22.07
2022-12-15T10:57:31.627Z,20.70
2022-12-15T11:00:28.707Z,21.83
2022-12-15T11:02:59.576Z,22.00
2022-12-15T11:05:28.135Z,21.30
2022-12-15T11:07:57.763Z,21.77
2022-12-15T11:10:28.127Z,20.87
2022-12-15T11:13:01.079Z,20.90
2022-12-15T11:15:45.335Z,22.20
2022-12-15T11:18:30.398Z,21.50
2022-12-15T11:21:05.798Z,22.20
2022-12-15T11:23:52.948Z,21.80
2022-12-15T11:26:32.997Z,22.23
2022-12-15T11:29:03.799Z,21.27
2022-12-15T11:31:37.969Z,21.07
2022-12-15T11:34:13.578Z,22.10
2022-12-15T11:37:15.037Z,22.70
2022-12-15T11:39:52.048Z,21.17
2022-12-15T11:42:29.203Z,20.20
2022-12-15T11:45:06.488Z,19.73
2022-12-15T11:47:43.147Z,19.27
2022-12-15T11:50:24.095Z,20.97
2022-12-15T11:53:11.069Z,20.00
2022-12-15T11:55:48.078Z,20.53
2022-12-15T11:58:52.823Z,20.73
2022-12-15T12:01:39.784Z,20.67
2022-12-15T12:04:17.574Z,21.33
2022-12-15T12:06:57.417Z,21.27
2022-12-15T12:09:34.519Z,19.80
2022-12-15T12:12:12.976Z,21.73
2022-12-15T12:14:52.186Z,22.00
2022-12-15T12:17:32.369Z,23.10
2022-12-15T12:20:07.792Z,22.40
2022-12-15T12:22:43.773Z,22.80
2022-12-15T12:25:16.677Z,22.27
2022-12-15T12:27:50.425Z,21.37
2022-12-15T12:30:21.898Z,21.40
2022-12-15T12:32:59.613Z,21.87
2022-12-15T12:35:38.488Z,21.10
2022-12-15T12:38:10.792Z,20.60
2022-12-15T12:40:49.948Z,21.77
2022-12-15T12:43:32.958Z,21.63
2022-12-15T12:46:06.933Z,21.17
2022-12-15T12:48:38.642Z,20.73
2022-12-15T12:51:17.412Z,20.93
2022-12-15T12:53:47.383Z,21.97
2022-12-15T12:56:48.723Z,21.83
2022-12-15T12:59:41.968Z,21.13
2022-12-15T13:02:55.608Z,22.27
2022-12-15T13:05:27.554Z,20.57
2022-12-15T13:07:57.583Z,21.57
2022-12-15T13:10:28.133Z,21.23
2022-12-15T13:12:58.718Z,20.10
2022-12-15T13:15:39.014Z,20.20
2022-12-15T13:18:13.671Z,17.87
2022-12-15T13:20:43.295Z,21.17
2022-12-15T13:23:42.530Z,19.73
2022-12-15T13:26:19.043Z,20.13
2022-12-15T13:28:51.983Z,21.87
2022-12-15T13:31:33.171Z,21.03
2022-12-15T13:34:24.071Z,19.37
2022-12-15T13:37:02.488Z,20.57
2022-12-15T13:39:56.560Z,21.30
2022-12-15T13:42:45.637Z,20.80
2022-12-15T13:45:51.205Z,21.03
2022-12-15T13:48:35.868Z,18.60
2022-12-15T13:51:34.363Z,19.97
2022-12-15T13:54:12.876Z,19.47
2022-12-15T13:56:50.726Z,18.73
2022-12-15T13:59:28.378Z,18.43
2022-12-15T14:01:56.707Z,19.03
2022-12-15T14:04:24.998Z,19.17
2022-12-15T14:06:56.386Z,19.60
2022-12-15T14:09:29.537Z,19.13
2022-12-15T14:11:58.942Z,18.63
2022-12-15T14:14:31.333Z,20.23
2022-12-15T14:17:02.422Z,19.43
2022-12-15T14:19:39.915Z,20.00
2022-12-15T14:25:19.028Z,18.83
2022-12-15T14:27:51.075Z,20.77
2022-12-15T14:30:26.630Z,19.83
2022-12-15T14:33:00.016Z,19.43
2022-12-15T14:35:32.286Z,19.83
2022-12-15T14:38:03.731Z,20.33
2022-12-15T14:40:32.424Z,20.03
2022-12-15T14:43:00.870Z,20.33
2022-12-15T14:45:33.018Z,20.00
2022-12-15T14:48:39.417Z,23.17
2022-12-15T14:50:51.996Z,22.20
2022-12-15T14:53:22.476Z,22.03
2022-12-15T14:58:41.787Z,20.57
2022-12-15T15:01:25.417Z,23.17
2022-12-15T15:03:06.093Z,21.03
2022-12-15T15:03:15.481Z,19.13
2022-12-15T15:04:01.348Z,20.60
2022-12-15T15:06:34.043Z,22.43
2022-12-15T15:09:21.042Z,22.40
2022-12-15T15:11:52.181Z,22.20
2022-12-15T15:14:24.565Z,20.60
2022-12-15T15:17:06.908Z,21.03
2022-12-15T15:19:39.863Z,21.97
2022-12-15T15:22:24.439Z,24.13
2022-12-15T15:24:53.151Z,23.33
2022-12-15T15:27:33.720Z,23.17
2022-12-15T15:30:20.605Z,21.47
2022-12-15T15:33:02.117Z,20.33
2022-12-15T15:35:33.153Z,21.60
2022-12-15T15:38:05.770Z,22.53
2022-12-15T15:40:34.019Z,21.70
2022-12-15T15:43:02.149Z,22.03
2022-12-15T15:45:31.034Z,22.67
2022-12-15T15:48:00.688Z,21.93
2022-12-15T15:50:30.727Z,21.30
2022-12-15T15:52:59.489Z,20.77
2022-12-15T15:55:36.257Z,22.60
2022-12-15T15:58:12.284Z,21.00
2022-12-15T16:00:41.154Z,21.50
2022-12-15T16:03:11.210Z,22.73
2022-12-15T16:05:40.564Z,23.43
2022-12-15T16:08:10.777Z,21.77
2022-12-15T16:10:39.137Z,22.00
2022-12-15T16:13:07.243Z,23.00
2022-12-15T16:15:35.440Z,22.20
2022-12-15T16:18:03.622Z,22.93
2022-12-15T16:20:33.986Z,22.23
2022-12-15T16:23:05.825Z,22.17
2022-12-15T16:25:44.082Z,22.53
2022-12-15T16:28:20.489Z,22.53
2022-12-15T16:30:49.106Z,20.87
2022-12-15T16:33:18.093Z,22.00
2022-12-15T16:35:48.479Z,21.67
2022-12-15T16:38:22.335Z,21.93
2022-12-15T16:40:51.038Z,24.23
2022-12-15T16:43:22.460Z,21.47
2022-12-15T16:45:51.892Z,21.80
2022-12-15T16:48:21.093Z,21.80
2022-12-15T16:50:55.233Z,22.53
2022-12-15T16:53:25.798Z,22.83
2022-12-15T16:55:57.699Z,21.73
2022-12-15T16:58:28.345Z,21.60
2022-12-15T17:00:56.777Z,21.83
2022-12-15T17:03:27.602Z,21.30
2022-12-15T17:05:59.298Z,23.03
2022-12-15T17:08:30.351Z,21.20
2022-12-15T17:10:59.089Z,23.03
2022-12-15T17:13:37.787Z,23.20
2022-12-15T17:16:14.286Z,21.30
2022-12-15T17:18:44.460Z,20.40
2022-12-15T17:21:16.904Z,21.53
2022-12-15T17:23:46.091Z,22.80
2022-12-15T17:26:27.948Z,21.93
2022-12-15T17:28:59.782Z,24.13
2022-12-15T17:31:34.686Z,22.40
2022-12-15T17:34:11.500Z,21.60
2022-12-15T17:36:41.040Z,22.17
2022-12-15T17:39:14.250Z,22.07
2022-12-15T17:41:59.213Z,23.43
2022-12-15T17:44:33.724Z,21.60
2022-12-15T17:47:05.537Z,21.90
2022-12-15T17:49:36.656Z,22.60
2022-12-15T17:52:15.188Z,22.10
2022-12-15T17:54:43.405Z,22.37
2022-12-15T17:57:13.450Z,23.10
2022-12-15T17:59:41.662Z,21.40
2022-12-15T18:02:12.713Z,22.77
2022-12-15T18:04:41.577Z,22.37
2022-12-15T18:07:16.444Z,21.80
2022-12-15T18:10:52.447Z,21.20
2022-12-15T18:13:22.917Z,21.70
2022-12-15T18:15:51.846Z,17.90
2022-12-15T18:18:22.163Z,19.63
2022-12-15T18:20:51.301Z,19.93
2022-12-15T18:23:21.937Z,21.27
2022-12-15T18:25:52.688Z,27.33
2022-12-15T18:28:22.631Z,21.43
2022-12-15T18:30:52.184Z,20.67
2022-12-15T18:33:20.728Z,18.77
2022-12-15T18:35:51.311Z,23.13
2022-12-15T18:38:21.515Z,24.27
2022-12-15T18:40:52.808Z,22.70
2022-12-15T18:43:22.888Z,22.37
2022-12-15T18:45:52.158Z,23.97
2022-12-15T18:48:22.785Z,23.70
2022-12-15T18:50:53.318Z,23.03
2022-12-15T18:53:27.263Z,24.07
2022-12-15T18:55:57.793Z,23.00
2022-12-15T18:58:29.038Z,22.67
2022-12-15T19:00:59.483Z,23.90
2022-12-15T19:03:28.381Z,23.00
2022-12-15T19:06:00.364Z,24.23
2022-12-15T19:08:31.970Z,25.17
2022-12-15T19:11:04.857Z,23.80
2022-12-15T19:13:36.252Z,23.77
2022-12-15T19:16:07.794Z,21.97
2022-12-15T19:31:46.289Z,24.37
2022-12-15T19:34:20.788Z,24.80
2022-12-15T19:36:48.924Z,26.13
2022-12-15T19:39:23.550Z,24.30
2022-12-15T19:41:51.843Z,23.77
2022-12-15T19:44:20.071Z,23.83
2022-12-15T19:46:48.341Z,26.07
2022-12-15T19:49:19.217Z,24.07
2022-12-15T19:51:47.446Z,23.57
2022-12-15T19:54:18.955Z,25.57
2022-12-15T19:56:47.612Z,26.13
2022-12-15T20:03:33.806Z,22.13
2022-12-15T20:06:05.429Z,23.23
2022-12-15T20:08:38.768Z,23.43
2022-12-15T20:11:10.744Z,23.50
2022-12-15T20:13:39.079Z,24.97
2022-12-15T20:16:08.690Z,24.33
2022-12-15T20:18:36.823Z,24.00
2022-12-15T20:21:07.770Z,23.70
2022-12-15T20:23:36.453Z,20.70
2022-12-15T20:26:07.339Z,20.50
2022-12-15T20:28:35.662Z,22.97
2022-12-15T20:31:03.844Z,24.50
2022-12-15T20:33:32.362Z,23.90
2022-12-15T20:36:00.755Z,23.50
2022-12-15T20:39:57.419Z,22.80
2022-12-15T20:42:26.571Z,22.60
2022-12-15T20:44:54.779Z,22.90
2022-12-15T20:47:25.609Z,22.60
2022-12-15T20:49:55.621Z,23.17
2022-12-15T20:52:25.839Z,22.17
2022-12-15T20:54:55.799Z,22.27
2022-12-15T20:57:23.870Z,21.67
2022-12-15T20:59:51.975Z,23.40
2022-12-15T21:02:23.430Z,23.70
2022-12-15T21:04:52.420Z,22.60
2022-12-15T21:07:20.807Z,24.67
2022-12-15T21:09:49.175Z,22.77
2022-12-15T21:12:21.342Z,20.83
2022-12-15T21:14:50.943Z,22.43
2022-12-15T21:17:21.251Z,21.73
2022-12-15T21:19:49.728Z,21.43
2022-12-15T21:22:21.827Z,23.07
2022-12-15T21:24:52.131Z,22.90
2022-12-15T21:27:21.731Z,22.87
2022-12-15T21:29:52.670Z,24.97
2022-12-15T21:32:21.511Z,22.40
2022-12-15T21:34:51.792Z,25.53
2022-12-15T21:37:25.143Z,24.87
2022-12-15T21:39:53.490Z,24.43
2022-12-15T21:42:24.020Z,22.97
2022-12-15T21:44:52.266Z,22.87
2022-12-15T21:47:47.746Z,23.67
2022-12-15T21:50:15.653Z,22.03
2022-12-15T21:52:45.125Z,22.03
2022-12-15T21:55:16.777Z,20.77
2022-12-15T21:57:46.691Z,21.87
2022-12-15T22:00:17.234Z,22.67
2022-12-15T22:02:45.751Z,22.90
2022-12-15T22:05:18.753Z,22.00
2022-12-15T22:07:46.993Z,22.37
2022-12-15T22:10:16.181Z,21.93
2022-12-15T22:12:54.616Z,20.73
2022-12-15T22:15:27.734Z,20.77
2022-12-15T22:17:56.113Z,22.43
2022-12-15T22:20:25.623Z,23.27
2022-12-15T22:22:53.746Z,21.73
2022-12-15T22:25:25.051Z,22.50
2022-12-15T22:27:54.770Z,24.40
2022-12-15T22:30:25.277Z,22.70
2022-12-15T22:32:53.923Z,22.17
2022-12-15T22:35:26.512Z,21.33
2022-12-15T22:37:56.426Z,22.93
2022-12-15T22:40:25.447Z,21.63
2022-12-15T22:42:58.127Z,24.33
2022-12-15T22:45:26.419Z,23.90
2022-12-15T22:47:55.374Z,25.40
2022-12-15T22:50:25.859Z,23.30
2022-12-15T22:52:55.042Z,24.10
2022-12-15T22:55:24.350Z,23.30
2022-12-15T22:57:59.069Z,28.83
2022-12-15T23:00:27.261Z,25.20
2022-12-15T23:02:55.623Z,22.80
2022-12-15T23:05:26.115Z,23.33
2022-12-15T23:07:54.967Z,24.77
2022-12-15T23:10:40.611Z,26.97
2022-12-15T23:13:10.318Z,24.23
2022-12-15T23:15:56.015Z,23.20
2022-12-15T23:18:24.282Z,23.63
2022-12-15T23:20:52.659Z,22.33
2022-12-15T23:23:21.220Z,25.00
2022-12-15T23:25:50.083Z,50.37
2022-12-15T23:28:20.199Z,31.77
2022-12-15T23:30:51.086Z,25.70
2022-12-15T23:33:19.544Z,26.20
2022-12-15T23:35:48.327Z,44.80
2022-12-15T23:38:17.182Z,31.30
2022-12-15T23:40:51.085Z,27.73
2022-12-15T23:43:23.333Z,49.27
2022-12-15T23:45:58.148Z,49.30
2022-12-15T23:48:29.522Z,28.60
2022-12-15T23:51:04.593Z,26.33
2022-12-15T23:53:33.303Z,25.23
2022-12-15T23:56:08.124Z,24.43
2022-12-15T23:58:39.217Z,27.07
